createdAt,value
2022-10-11T00:00:50.679Z,0.00
2022-10-11T00:01:50.648Z,0.00
2022-10-11T00:02:50.666Z,0.00
2022-10-11T00:03:50.664Z,0.00
2022-10-11T00:04:50.635Z,0.00
2022-10-11T00:05:50.633Z,0.00
2022-10-11T00:06:50.641Z,0.00
2022-10-11T00:07:50.609Z,0.00
2022-10-11T00:08:50.603Z,0.00
2022-10-11T00:09:50.579Z,0.00
2022-10-11T00:10:50.565Z,0.00
2022-10-11T00:11:50.567Z,0.00
2022-10-11T00:12:50.544Z,0.00
2022-10-11T00:13:50.580Z,0.00
2022-10-11T00:14:50.523Z,0.00
2022-10-11T00:15:50.507Z,0.00
2022-10-11T00:16:50.516Z,0.00
2022-10-11T00:17:50.484Z,0.00
2022-10-11T00:18:50.485Z,0.00
2022-10-11T00:19:50.451Z,0.00
2022-10-11T00:20:50.433Z,0.00
2022-10-11T00:21:50.426Z,0.00
2022-10-11T00:22:50.425Z,0.00
2022-10-11T00:23:50.415Z,0.00
2022-10-11T00:24:50.404Z,0.00
2022-10-11T00:25:50.390Z,0.00
2022-10-11T00:26:50.378Z,0.00
2022-10-11T00:27:50.352Z,0.00
2022-10-11T00:28:50.415Z,0.00
2022-10-11T00:29:50.330Z,0.00
2022-10-11T00:30:50.322Z,0.00
2022-10-11T00:31:50.309Z,0.00
2022-10-11T00:32:50.291Z,0.00
2022-10-11T00:33:50.300Z,0.00
2022-10-11T00:34:50.273Z,0.00
2022-10-11T00:35:50.257Z,0.00
2022-10-11T00:36:50.262Z,0.00
2022-10-11T00:37:50.226Z,0.00
2022-10-11T00:38:50.246Z,0.00
2022-10-11T00:39:50.215Z,0.00
2022-10-11T00:40:50.195Z,0.00
2022-10-11T00:41:50.186Z,0.00
2022-10-11T00:42:50.175Z,0.00
2022-10-11T00:43:50.186Z,0.00
2022-10-11T00:44:50.156Z,0.00
2022-10-11T00:45:50.144Z,0.00
2022-10-11T00:46:52.668Z,0.00
2022-10-11T00:47:51.125Z,0.00
2022-10-11T00:48:50.135Z,0.00
2022-10-11T00:49:50.098Z,0.00
2022-10-11T00:50:50.075Z,0.00
2022-10-11T00:51:50.072Z,0.00
2022-10-11T00:52:50.068Z,0.00
2022-10-11T00:53:50.065Z,0.00
2022-10-11T00:54:50.044Z,0.00
2022-10-11T00:55:50.026Z,0.00
2022-10-11T00:56:50.036Z,0.00
2022-10-11T00:57:50.005Z,0.00
2022-10-11T00:58:50.006Z,0.00
2022-10-11T00:59:49.977Z,0.00
2022-10-11T01:00:49.970Z,0.00
2022-10-11T01:01:50.021Z,0.00
2022-10-11T01:02:49.949Z,0.00
2022-10-11T01:03:49.947Z,0.00
2022-10-11T01:05:01.018Z,0.00
2022-10-11T01:05:50.909Z,0.00
2022-10-11T01:06:49.909Z,0.00
2022-10-11T01:07:49.893Z,0.00
2022-10-11T01:08:49.884Z,0.00
2022-10-11T01:09:49.859Z,0.00
2022-10-11T01:10:49.847Z,0.00
2022-10-11T01:11:49.846Z,0.00
2022-10-11T01:12:49.836Z,0.00
2022-10-11T01:13:49.833Z,0.00
2022-10-11T01:14:49.801Z,0.00
2022-10-11T01:15:49.797Z,0.00
2022-10-11T01:16:49.806Z,0.00
2022-10-11T01:17:49.765Z,0.00
2022-10-11T01:18:49.785Z,0.00
2022-10-11T01:19:49.738Z,0.00
2022-10-11T01:20:49.726Z,0.00
2022-10-11T01:21:49.719Z,0.00
2022-10-11T01:22:49.723Z,0.00
2022-10-11T01:23:49.711Z,0.00
2022-10-11T01:24:49.700Z,0.00
2022-10-11T01:25:49.672Z,0.00
2022-10-11T01:26:49.679Z,0.00
2022-10-11T01:27:49.648Z,0.00
2022-10-11T01:28:49.749Z,0.00
2022-10-11T01:29:49.627Z,0.00
2022-10-11T01:30:49.627Z,0.00
2022-10-11T01:31:49.604Z,0.00
2022-10-11T01:32:49.590Z,0.00
2022-10-11T01:33:49.600Z,0.00
2022-10-11T01:34:49.600Z,0.00
2022-10-11T01:35:49.566Z,0.00
2022-10-11T01:36:49.568Z,0.00
2022-10-11T01:37:49.540Z,0.00
2022-10-11T01:38:49.541Z,0.00
2022-10-11T01:39:49.533Z,0.00
2022-10-11T01:40:49.503Z,0.00
2022-10-11T01:41:49.482Z,0.00
2022-10-11T01:42:49.500Z,0.00
2022-10-11T01:43:49.487Z,0.00
2022-10-11T01:44:49.453Z,0.00
2022-10-11T01:45:49.438Z,0.00
2022-10-11T01:46:49.451Z,0.00
2022-10-11T01:47:49.420Z,0.00
2022-10-11T01:48:49.418Z,0.00
2022-10-11T01:49:49.409Z,0.00
2022-10-11T01:50:49.393Z,0.00
2022-10-11T01:51:49.374Z,0.00
2022-10-11T01:52:49.365Z,0.00
2022-10-11T01:53:49.360Z,0.00
2022-10-11T01:55:08.512Z,0.00
2022-10-11T01:55:50.321Z,0.00
2022-10-11T01:56:49.340Z,0.00
2022-10-11T01:57:49.301Z,0.00
2022-10-11T01:58:49.304Z,0.00
2022-10-11T01:59:49.279Z,0.00
2022-10-11T02:00:49.270Z,0.00
2022-10-11T02:01:49.297Z,0.00
2022-10-11T02:02:49.241Z,0.00
2022-10-11T02:03:49.248Z,0.00
2022-10-11T02:04:49.221Z,0.00
2022-10-11T02:05:49.214Z,0.00
2022-10-11T02:06:49.211Z,0.00
2022-10-11T02:07:49.182Z,0.00
2022-10-11T02:08:49.186Z,0.00
2022-10-11T02:09:49.182Z,0.00
2022-10-11T02:10:49.149Z,0.00
2022-10-11T02:11:49.140Z,0.00
2022-10-11T02:12:49.129Z,0.00
2022-10-11T02:13:49.131Z,0.00
2022-10-11T02:14:49.112Z,0.00
2022-10-11T02:15:49.101Z,0.00
2022-10-11T02:16:49.102Z,0.00
2022-10-11T02:17:49.059Z,0.00
2022-10-11T02:18:49.082Z,0.00
2022-10-11T02:19:49.038Z,0.00
2022-10-11T02:20:49.042Z,0.00
2022-10-11T02:21:49.021Z,0.00
2022-10-11T02:22:49.022Z,0.00
2022-10-11T02:23:48.999Z,0.00
2022-10-11T02:24:49.005Z,0.00
2022-10-11T02:25:48.973Z,0.00
2022-10-11T02:26:48.998Z,0.00
2022-10-11T02:27:48.952Z,0.00
2022-10-11T02:28:49.043Z,0.00
2022-10-11T02:29:48.932Z,0.00
2022-10-11T02:30:48.933Z,0.00
2022-10-11T02:31:48.914Z,0.00
2022-10-11T02:32:48.904Z,0.00
2022-10-11T02:33:48.916Z,0.00
2022-10-11T02:34:48.889Z,0.00
2022-10-11T02:35:48.864Z,0.00
2022-10-11T02:36:48.874Z,0.00
2022-10-11T02:37:48.832Z,0.00
2022-10-11T02:38:48.845Z,0.00
2022-10-11T02:39:48.825Z,0.00
2022-10-11T02:40:48.808Z,0.00
2022-10-11T02:41:48.783Z,0.00
2022-10-11T02:42:48.787Z,0.00
2022-10-11T02:43:48.785Z,0.00
2022-10-11T02:44:48.755Z,0.00
2022-10-11T02:45:48.756Z,0.00
2022-10-11T02:46:48.755Z,0.00
2022-10-11T02:47:48.724Z,0.00
2022-10-11T02:48:48.733Z,0.00
2022-10-11T02:49:48.705Z,0.00
2022-10-11T02:50:48.695Z,0.00
2022-10-11T02:51:48.683Z,0.00
2022-10-11T02:52:48.672Z,0.00
2022-10-11T02:53:48.653Z,0.00
2022-10-11T02:54:48.658Z,0.00
2022-10-11T02:55:48.630Z,0.00
2022-10-11T02:56:48.634Z,0.00
2022-10-11T02:57:48.606Z,0.00
2022-10-11T02:58:48.613Z,0.00
2022-10-11T02:59:48.588Z,0.00
2022-10-11T03:00:48.574Z,0.00
2022-10-11T03:01:48.632Z,0.00
2022-10-11T03:02:48.554Z,0.00
2022-10-11T03:03:48.564Z,0.00
2022-10-11T03:04:48.524Z,0.00
2022-10-11T03:05:48.513Z,0.00
2022-10-11T03:06:48.524Z,0.00
2022-10-11T03:07:48.486Z,0.00
2022-10-11T03:08:48.480Z,0.00
2022-10-11T03:09:48.484Z,0.00
2022-10-11T03:10:48.453Z,0.00
2022-10-11T03:11:48.447Z,0.00
2022-10-11T03:12:48.436Z,0.00
2022-10-11T03:13:48.414Z,0.00
2022-10-11T03:14:48.425Z,0.00
2022-10-11T03:15:49.345Z,0.00
2022-10-11T03:16:48.733Z,0.00
2022-10-11T03:17:48.376Z,0.00
2022-10-11T03:18:48.362Z,0.00
2022-10-11T03:19:48.363Z,0.00
2022-10-11T03:20:48.340Z,0.00
2022-10-11T03:21:48.324Z,0.00
2022-10-11T03:22:48.326Z,0.00
2022-10-11T03:23:48.305Z,0.00
2022-10-11T03:24:48.293Z,0.00
2022-10-11T03:25:48.296Z,0.00
2022-10-11T03:26:48.286Z,0.00
2022-10-11T03:27:48.246Z,0.00
2022-10-11T03:28:48.329Z,0.00
2022-10-11T03:29:48.236Z,0.00
2022-10-11T03:30:48.226Z,0.00
2022-10-11T03:31:48.215Z,0.00
2022-10-11T03:32:48.206Z,0.00
2022-10-11T03:33:48.184Z,0.00
2022-10-11T03:34:48.165Z,0.00
2022-10-11T03:35:48.163Z,0.00
2022-10-11T03:36:48.193Z,0.00
2022-10-11T03:37:48.135Z,0.00
2022-10-11T03:38:48.127Z,0.00
2022-10-11T03:39:48.115Z,0.00
2022-10-11T03:40:48.109Z,0.00
2022-10-11T03:41:48.095Z,0.00
2022-10-11T03:42:48.097Z,0.00
2022-10-11T03:43:48.076Z,0.00
2022-10-11T03:44:48.065Z,0.00
2022-10-11T03:45:48.046Z,0.00
2022-10-11T03:46:48.055Z,0.00
2022-10-11T03:47:48.034Z,0.00
2022-10-11T03:48:48.017Z,0.00
2022-10-11T03:49:48.006Z,0.00
2022-10-11T03:50:47.995Z,0.00
2022-10-11T03:51:47.964Z,0.00
2022-10-11T03:52:47.988Z,0.00
2022-10-11T03:53:47.952Z,0.00
2022-10-11T03:54:47.951Z,0.00
2022-10-11T03:55:47.926Z,0.00
2022-10-11T03:56:47.938Z,0.00
2022-10-11T03:57:47.928Z,0.00
2022-10-11T03:58:47.903Z,0.00
2022-10-11T03:59:47.887Z,0.00
2022-10-11T04:00:47.866Z,0.00
2022-10-11T04:01:47.883Z,0.00
2022-10-11T04:02:47.849Z,0.00
2022-10-11T04:03:47.852Z,0.00
2022-10-11T04:04:47.826Z,0.00
2022-10-11T04:05:47.819Z,0.00
2022-10-11T04:06:47.817Z,0.00
2022-10-11T04:07:47.786Z,0.00
2022-10-11T04:08:47.799Z,0.00
2022-10-11T04:09:47.798Z,0.00
2022-10-11T04:10:47.785Z,0.00
2022-10-11T04:11:47.748Z,0.00
2022-10-11T04:12:47.748Z,0.00
2022-10-11T04:13:47.720Z,0.00
2022-10-11T04:14:47.721Z,0.00
2022-10-11T04:15:47.698Z,0.00
2022-10-11T04:16:47.699Z,0.00
2022-10-11T04:17:47.695Z,0.00
2022-10-11T04:18:47.685Z,0.00
2022-10-11T04:19:47.660Z,0.00
2022-10-11T04:20:47.637Z,0.00
2022-10-11T04:21:47.641Z,0.00
2022-10-11T04:22:47.617Z,0.00
2022-10-11T04:23:47.629Z,0.00
2022-10-11T04:24:47.594Z,0.00
2022-10-11T04:25:47.589Z,0.00
2022-10-11T04:26:47.590Z,0.00
2022-10-11T04:27:47.567Z,0.00
2022-10-11T04:28:47.611Z,0.00
2022-10-11T04:29:47.551Z,0.00
2022-10-11T04:30:47.525Z,0.00
2022-10-11T04:31:47.515Z,0.00
2022-10-11T04:32:47.499Z,0.00
2022-10-11T04:33:47.511Z,0.00
2022-10-11T04:34:47.472Z,0.00
2022-10-11T04:35:47.482Z,0.00
2022-10-11T04:36:49.934Z,0.00
2022-10-11T04:37:47.448Z,0.00
2022-10-11T04:38:47.448Z,0.00
2022-10-11T04:39:47.421Z,0.00
2022-10-11T04:40:47.410Z,0.00
2022-10-11T04:41:47.401Z,0.00
2022-10-11T04:42:47.403Z,0.00
2022-10-11T04:43:47.397Z,0.00
2022-10-11T04:44:47.372Z,0.00
2022-10-11T04:45:47.346Z,0.00
2022-10-11T04:46:47.363Z,0.00
2022-10-11T04:47:47.325Z,0.00
2022-10-11T04:48:47.330Z,0.00
2022-10-11T04:49:47.305Z,0.00
2022-10-11T04:50:47.292Z,0.00
2022-10-11T04:51:47.287Z,0.00
2022-10-11T04:52:47.273Z,0.00
2022-10-11T04:53:47.271Z,0.00
2022-10-11T04:54:47.242Z,0.00
2022-10-11T04:55:47.235Z,0.00
2022-10-11T04:56:47.230Z,0.00
2022-10-11T04:57:47.211Z,0.00
2022-10-11T04:58:47.212Z,0.00
2022-10-11T04:59:50.217Z,0.00
2022-10-11T05:00:47.189Z,0.00
2022-10-11T05:01:47.237Z,0.00
2022-10-11T05:02:47.153Z,0.00
2022-10-11T05:03:47.162Z,0.00
2022-10-11T05:04:47.130Z,0.00
2022-10-11T05:05:47.122Z,0.00
2022-10-11T05:06:47.131Z,0.00
2022-10-11T05:07:47.094Z,0.00
2022-10-11T05:08:47.104Z,0.00
2022-10-11T05:09:47.071Z,0.00
2022-10-11T05:10:47.059Z,0.00
2022-10-11T05:11:47.053Z,0.00
2022-10-11T05:12:47.033Z,0.00
2022-10-11T05:13:47.045Z,0.00
2022-10-11T05:14:47.015Z,0.00
2022-10-11T05:15:47.012Z,0.00
2022-10-11T05:16:47.013Z,0.00
2022-10-11T05:17:46.993Z,0.00
2022-10-11T05:18:46.981Z,0.00
2022-10-11T05:19:46.966Z,0.00
2022-10-11T05:20:46.941Z,0.00
2022-10-11T05:21:46.944Z,4.00
2022-10-11T05:22:46.921Z,4.00
2022-10-11T05:23:46.914Z,0.00
2022-10-11T05:24:46.913Z,4.00
2022-10-11T05:25:46.892Z,0.00
2022-10-11T05:26:46.874Z,4.00
2022-10-11T05:27:46.888Z,4.00
2022-10-11T05:28:46.922Z,4.00
2022-10-11T05:29:46.854Z,8.00
2022-10-11T05:30:46.832Z,8.00
2022-10-11T05:31:46.824Z,4.00
2022-10-11T05:32:46.802Z,8.00
2022-10-11T05:33:46.814Z,8.00
2022-10-11T05:34:46.782Z,12.00
2022-10-11T05:35:46.771Z,16.00
2022-10-11T05:36:46.776Z,12.00
2022-10-11T05:37:46.762Z,20.00
2022-10-11T05:38:46.734Z,24.00
2022-10-11T05:39:46.742Z,24.00
2022-10-11T05:40:46.721Z,32.00
2022-10-11T05:41:46.714Z,36.00
2022-10-11T05:42:46.695Z,40.00
2022-10-11T05:43:46.702Z,40.00
2022-10-11T05:44:46.676Z,44.00
2022-10-11T05:45:46.654Z,52.00
2022-10-11T05:46:46.645Z,56.00
2022-10-11T05:47:46.632Z,60.00
2022-10-11T05:48:46.635Z,64.00
2022-10-11T05:49:46.614Z,64.00
2022-10-11T05:50:46.595Z,68.00
2022-10-11T05:51:46.593Z,72.00
2022-10-11T05:52:46.573Z,76.00
2022-10-11T05:53:46.591Z,80.00
2022-10-11T05:54:46.561Z,84.00
2022-10-11T05:55:46.546Z,88.00
2022-10-11T05:56:46.534Z,84.00
2022-10-11T05:57:46.516Z,84.00
2022-10-11T05:58:46.519Z,84.00
2022-10-11T05:59:46.497Z,84.00
2022-10-11T06:00:46.485Z,88.00
2022-10-11T06:01:46.547Z,88.00
2022-10-11T06:02:46.465Z,92.00
2022-10-11T06:03:46.472Z,104.00
2022-10-11T06:04:46.435Z,120.00
2022-10-11T06:05:46.443Z,128.00
2022-10-11T06:06:46.409Z,132.00
2022-10-11T06:07:46.426Z,148.00
2022-10-11T06:08:46.409Z,156.00
2022-10-11T06:09:46.389Z,164.00
2022-10-11T06:10:46.364Z,168.00
2022-10-11T06:11:46.368Z,172.00
2022-10-11T06:12:46.345Z,184.00
2022-10-11T06:13:46.368Z,184.00
2022-10-11T06:14:46.316Z,192.00
2022-10-11T06:15:46.308Z,192.00
2022-10-11T06:16:46.298Z,196.00
2022-10-11T06:17:46.300Z,208.00
2022-10-11T06:18:46.308Z,212.00
2022-10-11T06:19:46.266Z,212.00
2022-10-11T06:20:46.257Z,212.00
2022-10-11T06:21:46.236Z,204.00
2022-10-11T06:22:46.226Z,208.00
2022-10-11T06:23:46.237Z,204.00
2022-10-11T06:24:46.206Z,196.00
2022-10-11T06:25:46.196Z,200.00
2022-10-11T06:26:46.182Z,204.00
2022-10-11T06:27:46.176Z,208.00
2022-10-11T06:28:46.204Z,216.00
2022-10-11T06:29:46.156Z,216.00
2022-10-11T06:30:46.135Z,208.00
2022-10-11T06:31:46.156Z,204.00
2022-10-11T06:32:46.115Z,200.00
2022-10-11T06:33:46.107Z,196.00
2022-10-11T06:34:46.087Z,200.00
2022-10-11T06:35:46.079Z,208.00
2022-10-11T06:36:46.068Z,208.00
2022-10-11T06:37:46.059Z,216.00
2022-10-11T06:38:46.062Z,240.00
2022-10-11T06:39:46.062Z,272.00
2022-10-11T06:40:46.020Z,296.00
2022-10-11T06:41:46.012Z,292.00
2022-10-11T06:42:45.999Z,276.00
2022-10-11T06:43:45.988Z,264.00
2022-10-11T06:44:45.989Z,252.00
2022-10-11T06:45:45.963Z,252.00
2022-10-11T06:46:45.959Z,260.00
2022-10-11T06:47:45.951Z,256.00
2022-10-11T06:48:45.943Z,252.00
2022-10-11T06:49:45.917Z,260.00
2022-10-11T06:50:59.545Z,264.00
2022-10-11T06:51:46.918Z,268.00
2022-10-11T06:52:45.888Z,284.00
2022-10-11T06:53:45.890Z,300.00
2022-10-11T06:54:45.871Z,312.00
2022-10-11T06:55:45.839Z,332.00
2022-10-11T06:56:45.833Z,344.00
2022-10-11T06:57:45.841Z,372.00
2022-10-11T06:58:45.829Z,408.00
2022-10-11T06:59:45.795Z,436.00
2022-10-11T07:00:45.856Z,444.00
2022-10-11T07:01:45.774Z,492.00
2022-10-11T07:02:45.761Z,576.00
2022-10-11T07:03:45.779Z,556.00
2022-10-11T07:04:45.748Z,640.00
2022-10-11T07:05:45.739Z,648.00
2022-10-11T07:06:45.718Z,692.00
2022-10-11T07:07:45.707Z,788.00
2022-10-11T07:08:45.704Z,924.00
2022-10-11T07:09:45.716Z,968.00
2022-10-11T07:10:45.679Z,948.00
2022-10-11T07:11:45.697Z,896.00
2022-10-11T07:12:45.657Z,952.00
2022-10-11T07:13:45.657Z,992.00
2022-10-11T07:14:45.658Z,1048.00
2022-10-11T07:15:45.634Z,1120.00
2022-10-11T07:16:45.599Z,1188.00
2022-10-11T07:17:45.592Z,1212.00
2022-10-11T07:18:45.600Z,1140.00
2022-10-11T07:19:45.575Z,1108.00
2022-10-11T07:20:45.551Z,1020.00
2022-10-11T07:21:45.544Z,984.00
2022-10-11T07:22:45.544Z,916.00
2022-10-11T07:23:45.536Z,848.00
2022-10-11T07:24:45.531Z,780.00
2022-10-11T07:25:45.503Z,724.00
2022-10-11T07:26:45.494Z,680.00
2022-10-11T07:27:45.483Z,652.00
2022-10-11T07:28:45.545Z,648.00
2022-10-11T07:29:45.449Z,668.00
2022-10-11T07:30:45.439Z,684.00
2022-10-11T07:31:45.430Z,708.00
2022-10-11T07:32:45.411Z,648.00
2022-10-11T07:33:45.423Z,780.00
2022-10-11T07:34:45.379Z,824.00
2022-10-11T07:35:48.403Z,904.00
2022-10-11T07:36:45.363Z,1044.00
2022-10-11T07:37:45.362Z,1092.00
2022-10-11T07:38:45.373Z,1104.00
2022-10-11T07:39:45.330Z,1000.00
2022-10-11T07:40:45.337Z,912.00
2022-10-11T07:41:46.144Z,936.00
2022-10-11T07:42:45.300Z,996.00
2022-10-11T07:43:45.322Z,960.00
2022-10-11T07:44:45.272Z,1016.00
2022-10-11T07:45:45.266Z,1036.00
2022-10-11T07:46:45.247Z,1056.00
2022-10-11T07:47:45.234Z,1036.00
2022-10-11T07:48:45.243Z,1060.00
2022-10-11T07:49:45.213Z,1072.00
2022-10-11T07:50:45.196Z,1060.00
2022-10-11T07:51:45.196Z,1044.00
2022-10-11T07:52:45.204Z,1044.00
2022-10-11T07:53:45.175Z,988.00
2022-10-11T07:54:45.167Z,1056.00
2022-10-11T07:55:45.155Z,1068.00
2022-10-11T07:56:45.131Z,1044.00
2022-10-11T07:57:45.125Z,1048.00
2022-10-11T07:58:45.126Z,1096.00
2022-10-11T07:59:49.919Z,1200.00
2022-10-11T08:00:46.118Z,1292.00
2022-10-11T08:01:45.127Z,1300.00
2022-10-11T08:02:45.077Z,1256.00
2022-10-11T08:03:45.078Z,1328.00
2022-10-11T08:04:45.044Z,1388.00
2022-10-11T08:05:45.032Z,1376.00
2022-10-11T08:06:46.265Z,1360.00
2022-10-11T08:07:45.004Z,1348.00
2022-10-11T08:08:45.004Z,1328.00
2022-10-11T08:09:44.985Z,1240.00
2022-10-11T08:10:44.965Z,1180.00
2022-10-11T08:11:44.965Z,1200.00
2022-10-11T08:12:44.945Z,1244.00
2022-10-11T08:13:45.004Z,1212.00
2022-10-11T08:14:44.926Z,1140.00
2022-10-11T08:15:44.933Z,1060.00
2022-10-11T08:16:44.908Z,1020.00
2022-10-11T08:17:44.884Z,1036.00
2022-10-11T08:18:44.887Z,1132.00
2022-10-11T08:19:44.878Z,1372.00
2022-10-11T08:20:44.853Z,1976.00
2022-10-11T08:21:44.842Z,2580.00
2022-10-11T08:22:44.843Z,3376.00
2022-10-11T08:23:44.842Z,2696.00
2022-10-11T08:24:44.817Z,3084.00
2022-10-11T08:25:44.797Z,2716.00
2022-10-11T08:26:44.783Z,1816.00
2022-10-11T08:27:44.869Z,1448.00
2022-10-11T08:28:44.843Z,1428.00
2022-10-11T08:29:44.779Z,1476.00
2022-10-11T08:30:44.757Z,1468.00
2022-10-11T08:31:44.728Z,1504.00
2022-10-11T08:32:44.719Z,1460.00
2022-10-11T08:33:44.717Z,1464.00
2022-10-11T08:34:44.699Z,1488.00
2022-10-11T08:35:44.677Z,1520.00
2022-10-11T08:36:44.729Z,1612.00
2022-10-11T08:37:44.677Z,1692.00
2022-10-11T08:38:44.667Z,1836.00
2022-10-11T08:39:44.629Z,2108.00
2022-10-11T08:40:44.618Z,2140.00
2022-10-11T08:41:44.610Z,2272.00
2022-10-11T08:42:44.594Z,2100.00
2022-10-11T08:43:44.595Z,2328.00
2022-10-11T08:45:10.477Z,2240.00
2022-10-11T08:45:45.555Z,2160.00
2022-10-11T08:46:44.559Z,2080.00
2022-10-11T08:47:44.538Z,2016.00
2022-10-11T08:48:44.552Z,1888.00
2022-10-11T08:49:44.519Z,1844.00
2022-10-11T08:50:44.498Z,1484.00
2022-10-11T08:51:44.491Z,1780.00
2022-10-11T08:52:44.497Z,2160.00
2022-10-11T08:53:44.485Z,2212.00
2022-10-11T08:54:44.458Z,2416.00
2022-10-11T08:55:44.440Z,2548.00
2022-10-11T08:56:44.432Z,2588.00
2022-10-11T08:57:44.418Z,2596.00
2022-10-11T08:58:44.414Z,2564.00
2022-10-11T08:59:44.409Z,2556.00
2022-10-11T09:00:44.391Z,2524.00
2022-10-11T09:01:44.470Z,2532.00
2022-10-11T09:03:06.780Z,2472.00
2022-10-11T09:03:45.361Z,2408.00
2022-10-11T09:04:44.351Z,2404.00
2022-10-11T09:05:44.331Z,2472.00
2022-10-11T09:06:44.320Z,2588.00
2022-10-11T09:07:44.487Z,2660.00
2022-10-11T09:08:44.313Z,2552.00
2022-10-11T09:09:44.276Z,2296.00
2022-10-11T09:10:44.269Z,2252.00
2022-10-11T09:11:44.254Z,2144.00
2022-10-11T09:12:44.253Z,2000.00
2022-10-11T09:13:44.250Z,1908.00
2022-10-11T09:14:44.243Z,1856.00
2022-10-11T09:15:44.211Z,1820.00
2022-10-11T09:16:44.226Z,1796.00
2022-10-11T09:17:44.216Z,1800.00
2022-10-11T09:18:44.203Z,1768.00
2022-10-11T09:19:44.168Z,1720.00
2022-10-11T09:20:44.161Z,1704.00
2022-10-11T09:21:44.139Z,1448.00
2022-10-11T09:22:44.134Z,1360.00
2022-10-11T09:23:44.143Z,1320.00
2022-10-11T09:24:44.112Z,1248.00
2022-10-11T09:25:44.090Z,1368.00
2022-10-11T09:26:44.096Z,1568.00
2022-10-11T09:28:01.811Z,1544.00
2022-10-11T09:28:45.182Z,1544.00
2022-10-11T09:29:44.050Z,1524.00
2022-10-11T09:30:44.033Z,1500.00
2022-10-11T09:31:44.022Z,1476.00
2022-10-11T09:32:44.022Z,1464.00
2022-10-11T09:33:44.024Z,1452.00
2022-10-11T09:34:43.998Z,1452.00
2022-10-11T09:35:43.970Z,1444.00
2022-10-11T09:36:43.962Z,1468.00
2022-10-11T09:37:43.944Z,1496.00
2022-10-11T09:38:43.964Z,1484.00
2022-10-11T09:39:43.927Z,1448.00
2022-10-11T09:40:43.917Z,1452.00
2022-10-11T09:41:43.910Z,1452.00
2022-10-11T09:42:43.896Z,1452.00
2022-10-11T09:43:43.885Z,1456.00
2022-10-11T09:44:43.895Z,1460.00
2022-10-11T09:45:48.990Z,1452.00
2022-10-11T09:46:44.844Z,1428.00
2022-10-11T09:47:43.836Z,1372.00
2022-10-11T09:48:43.836Z,1344.00
2022-10-11T09:49:43.814Z,1316.00
2022-10-11T09:50:43.809Z,1296.00
2022-10-11T09:51:43.788Z,1280.00
2022-10-11T09:52:43.779Z,1276.00
2022-10-11T09:53:43.789Z,1288.00
2022-10-11T09:54:43.758Z,1300.00
2022-10-11T09:55:43.754Z,1320.00
2022-10-11T09:56:43.738Z,1356.00
2022-10-11T09:57:43.727Z,1356.00
2022-10-11T09:58:43.713Z,1316.00
2022-10-11T09:59:43.711Z,1340.00
2022-10-11T10:00:43.687Z,1360.00
2022-10-11T10:01:43.724Z,1304.00
2022-10-11T10:02:43.663Z,1276.00
2022-10-11T10:03:43.672Z,1320.00
2022-10-11T10:04:43.648Z,1488.00
2022-10-11T10:05:43.643Z,1684.00
2022-10-11T10:06:43.629Z,1640.00
2022-10-11T10:07:43.603Z,1464.00
2022-10-11T10:08:43.611Z,1480.00
2022-10-11T10:09:43.582Z,1608.00
2022-10-11T10:10:43.571Z,1852.00
2022-10-11T10:11:43.562Z,1884.00
2022-10-11T10:12:43.554Z,1600.00
2022-10-11T10:13:43.540Z,1476.00
2022-10-11T10:14:43.544Z,1420.00
2022-10-11T10:15:43.526Z,1364.00
2022-10-11T10:16:43.513Z,1360.00
2022-10-11T10:17:43.494Z,1464.00
2022-10-11T10:18:43.503Z,1420.00
2022-10-11T10:19:45.174Z,1148.00
2022-10-11T10:20:43.458Z,1168.00
2022-10-11T10:21:43.447Z,1204.00
2022-10-11T10:22:43.432Z,1260.00
2022-10-11T10:23:43.441Z,1324.00
2022-10-11T10:24:43.405Z,1464.00
2022-10-11T10:25:43.860Z,1556.00
2022-10-11T10:26:43.419Z,1552.00
2022-10-11T10:27:43.372Z,1588.00
2022-10-11T10:28:43.423Z,1484.00
2022-10-11T10:29:43.365Z,1424.00
2022-10-11T10:30:43.344Z,1424.00
2022-10-11T10:32:09.189Z,1368.00
2022-10-11T10:32:48.369Z,1320.00
2022-10-11T10:33:43.324Z,1260.00
2022-10-11T10:34:43.297Z,1216.00
2022-10-11T10:35:43.285Z,1108.00
2022-10-11T10:36:43.279Z,1092.00
2022-10-11T10:37:43.271Z,996.00
2022-10-11T10:38:43.268Z,1140.00
2022-10-11T10:39:43.239Z,1156.00
2022-10-11T10:40:43.235Z,1080.00
2022-10-11T10:41:43.223Z,1032.00
2022-10-11T10:42:43.213Z,856.00
2022-10-11T10:43:43.205Z,828.00
2022-10-11T10:44:43.188Z,896.00
2022-10-11T10:45:43.165Z,1068.00
2022-10-11T10:46:43.155Z,1012.00
2022-10-11T10:47:43.147Z,1152.00
2022-10-11T10:49:19.161Z,1124.00
2022-10-11T10:49:59.316Z,1156.00
2022-10-11T10:50:44.108Z,1220.00
2022-10-11T10:51:43.091Z,1212.00
2022-10-11T10:52:43.085Z,1284.00
2022-10-11T10:53:43.066Z,1332.00
2022-10-11T10:54:43.075Z,1332.00
2022-10-11T10:55:43.063Z,1380.00
2022-10-11T10:56:43.037Z,1556.00
2022-10-11T10:57:43.028Z,1356.00
2022-10-11T10:58:43.029Z,1376.00
2022-10-11T10:59:43.001Z,1432.00
2022-10-11T11:00:42.989Z,1476.00
2022-10-11T11:01:42.996Z,1380.00
2022-10-11T11:02:43.082Z,1256.00
2022-10-11T11:03:42.971Z,1332.00
2022-10-11T11:04:42.940Z,1376.00
2022-10-11T11:05:42.938Z,1476.00
2022-10-11T11:06:42.924Z,1552.00
2022-10-11T11:07:42.913Z,1496.00
2022-10-11T11:08:42.901Z,1480.00
2022-10-11T11:09:42.964Z,1484.00
2022-10-11T11:10:42.869Z,1440.00
2022-10-11T11:11:42.859Z,1392.00
2022-10-11T11:12:42.854Z,1288.00
2022-10-11T11:13:42.844Z,1164.00
2022-10-11T11:14:42.830Z,1096.00
2022-10-11T11:15:42.871Z,1040.00
2022-10-11T11:16:42.812Z,976.00
2022-10-11T11:17:42.793Z,968.00
2022-10-11T11:18:42.781Z,1004.00
2022-10-11T11:19:42.768Z,840.00
2022-10-11T11:20:42.779Z,760.00
2022-10-11T11:21:42.743Z,740.00
2022-10-11T11:22:42.743Z,784.00
2022-10-11T11:23:42.729Z,800.00
2022-10-11T11:24:42.724Z,776.00
2022-10-11T11:25:45.094Z,800.00
2022-10-11T11:26:44.485Z,816.00
2022-10-11T11:27:42.671Z,760.00
2022-10-11T11:28:42.714Z,724.00
2022-10-11T11:29:42.657Z,864.00
2022-10-11T11:30:42.643Z,856.00
2022-10-11T11:31:42.642Z,836.00
2022-10-11T11:32:45.732Z,824.00
2022-10-11T11:33:46.431Z,824.00
2022-10-11T11:34:43.593Z,856.00
2022-10-11T11:35:42.621Z,876.00
2022-10-11T11:36:42.575Z,908.00
2022-10-11T11:37:42.571Z,964.00
2022-10-11T11:38:42.554Z,1000.00
2022-10-11T11:39:42.537Z,1000.00
2022-10-11T11:40:42.525Z,980.00
2022-10-11T11:41:42.504Z,960.00
2022-10-11T11:42:42.506Z,884.00
2022-10-11T11:43:42.514Z,816.00
2022-10-11T11:44:42.474Z,780.00
2022-10-11T11:45:42.464Z,760.00
2022-10-11T11:46:42.464Z,816.00
2022-10-11T11:47:42.461Z,800.00
2022-10-11T11:48:42.446Z,772.00
2022-10-11T11:50:42.411Z,660.00
2022-10-11T11:51:42.408Z,736.00
2022-10-11T11:52:42.380Z,728.00
2022-10-11T11:53:42.376Z,740.00
2022-10-11T11:54:42.380Z,692.00
2022-10-11T11:55:42.357Z,680.00
2022-10-11T11:56:42.347Z,772.00
2022-10-11T11:57:42.328Z,812.00
2022-10-11T11:58:42.311Z,808.00
2022-10-11T11:59:42.324Z,820.00
2022-10-11T12:00:42.319Z,808.00
2022-10-11T12:01:42.317Z,728.00
2022-10-11T12:02:42.276Z,700.00
2022-10-11T12:03:42.257Z,732.00
2022-10-11T12:04:42.256Z,684.00
2022-10-11T12:05:42.228Z,764.00
2022-10-11T12:06:58.152Z,780.00
2022-10-11T12:07:43.215Z,768.00
2022-10-11T12:08:42.195Z,764.00
2022-10-11T12:09:42.178Z,756.00
2022-10-11T12:10:42.177Z,736.00
2022-10-11T12:11:42.185Z,716.00
2022-10-11T12:12:42.149Z,700.00
2022-10-11T12:13:42.137Z,680.00
2022-10-11T12:14:42.127Z,688.00
2022-10-11T12:15:42.113Z,672.00
2022-10-11T12:16:42.110Z,684.00
2022-10-11T12:17:42.112Z,680.00
2022-10-11T12:18:42.814Z,700.00
2022-10-11T12:19:42.072Z,724.00
2022-10-11T12:20:42.055Z,724.00
2022-10-11T12:21:42.173Z,736.00
2022-10-11T12:22:42.061Z,748.00
2022-10-11T12:23:42.031Z,744.00
2022-10-11T12:24:41.999Z,696.00
2022-10-11T12:25:41.996Z,672.00
2022-10-11T12:26:41.990Z,648.00
2022-10-11T12:27:41.975Z,644.00
2022-10-11T12:28:42.077Z,644.00
2022-10-11T12:29:41.950Z,640.00
2022-10-11T12:30:41.964Z,640.00
2022-10-11T12:31:45.976Z,644.00
2022-10-11T12:32:41.907Z,624.00
2022-10-11T12:33:41.923Z,624.00
2022-10-11T12:34:41.895Z,660.00
2022-10-11T12:35:41.885Z,656.00
2022-10-11T12:36:41.871Z,668.00
2022-10-11T12:37:41.861Z,684.00
2022-10-11T12:38:41.864Z,688.00
2022-10-11T12:39:41.840Z,680.00
2022-10-11T12:40:41.815Z,616.00
2022-10-11T12:41:41.819Z,612.00
2022-10-11T12:42:41.796Z,628.00
2022-10-11T12:43:41.804Z,628.00
2022-10-11T12:44:41.791Z,640.00